Time;durP1;ratioP1;P1;durP2;ratioP2;P2;SDS_P1;SDS_P2;PMS_P1;PMS_P2;Temp;Humidity;BMP_temperature;BMP_pressure;BME280_temperature;BME280_humidity;BME280_pressure;Samples;Min_cycle;Max_cycle;Signal;HPM_P1;HPM_P2
2022/12/02 00:02:33;;;;;;;50.17;19.98;;;7.20;99.90;;;;;;5101793;27;20023;-68
2022/12/02 00:05:14;;;;;;;48.83;20.88;;;7.20;99.90;;;;;;5089243;28;20054;-68
2022/12/02 00:07:41;;;;;;;48.45;21.60;;;7.20;99.90;;;;;;5090083;28;20622;-68
2022/12/02 00:10:19;;;;;;;46.83;20.98;;;7.20;99.90;;;;;;5114487;27;20114;-68
2022/12/02 00:12:44;;;;;;;48.63;21.58;;;7.30;99.90;;;;;;5117655;28;20066;-68
2022/12/02 00:15:35;;;;;;;48.67;21.55;;;7.20;99.90;;;;;;5096146;27;20067;-68
2022/12/02 00:18:00;;;;;;;49.50;21.77;;;7.30;99.90;;;;;;5077279;28;20032;-68
2022/12/02 00:20:26;;;;;;;50.20;21.98;;;7.30;99.90;;;;;;5099519;27;20414;-68
2022/12/02 00:22:51;;;;;;;57.45;23.42;;;7.20;99.90;;;;;;5089542;27;20414;-68
2022/12/02 00:25:17;;;;;;;53.67;21.42;;;7.20;99.90;;;;;;5119580;27;20052;-68
2022/12/02 00:27:43;;;;;;;52.53;22.27;;;7.20;99.90;;;;;;5119246;27;20410;-67
2022/12/02 00:30:09;;;;;;;51.97;22.33;;;7.20;99.90;;;;;;5084059;27;20074;-67
2022/12/02 00:32:34;;;;;;;51.40;21.80;;;7.20;99.90;;;;;;5100466;28;20469;-67
2022/12/02 00:35:00;;;;;;;51.85;22.40;;;7.30;99.90;;;;;;5101692;28;20023;-67
2022/12/02 00:37:25;;;;;;;51.72;21.80;;;7.30;99.90;;;;;;5089056;28;20352;-68
2022/12/02 00:39:51;;;;;;;49.92;22.10;;;7.20;99.90;;;;;;5111971;27;21753;-67
2022/12/02 00:42:17;;;;;;;56.42;22.92;;;7.20;99.90;;;;;;5097763;27;20027;-67
2022/12/02 00:47:26;;;;;;;53.83;21.23;;;7.30;99.90;;;;;;5092341;27;20355;-67
2022/12/02 00:49:52;;;;;;;63.35;23.77;;;7.20;99.90;;;;;;5122583;27;20027;-67
2022/12/02 00:52:18;;;;;;;57.33;23.63;;;7.20;99.90;;;;;;5082639;27;20278;-67
2022/12/02 00:54:43;;;;;;;69.38;26.48;;;7.10;99.90;;;;;;5094225;27;20490;-67
2022/12/02 00:57:09;;;;;;;60.72;23.25;;;7.20;99.90;;;;;;5099264;27;20043;-67
2022/12/02 00:59:34;;;;;;;60.72;24.25;;;7.20;99.90;;;;;;5120177;27;20384;-67
2022/12/02 01:02:00;;;;;;;63.53;24.25;;;7.20;99.90;;;;;;5109174;27;20053;-67
2022/12/02 01:04:25;;;;;;;61.90;23.95;;;7.20;99.90;;;;;;5117717;27;20486;-68
2022/12/02 01:06:51;;;;;;;58.45;22.48;;;7.30;99.90;;;;;;5118459;27;20110;-68
2022/12/02 01:09:17;;;;;;;59.40;23.30;;;7.20;99.90;;;;;;5101085;27;20165;-67
2022/12/02 01:11:42;;;;;;;54.83;22.70;;;7.20;99.90;;;;;;5091859;27;20035;-67
2022/12/02 01:14:08;;;;;;;58.20;22.23;;;7.30;99.90;;;;;;5120205;27;20031;-67
2022/12/02 01:16:34;;;;;;;58.58;22.17;;;7.20;99.90;;;;;;5121628;27;20334;-68
2022/12/02 01:18:59;;;;;;;53.58;23.00;;;7.30;99.90;;;;;;5120379;27;20112;-67
2022/12/02 01:21:25;;;;;;;52.08;21.10;;;7.30;99.90;;;;;;5120507;27;20027;-67
2022/12/02 01:23:51;;;;;;;54.55;21.70;;;7.30;99.90;;;;;;5104452;27;20032;-67
2022/12/02 01:26:16;;;;;;;56.05;21.23;;;7.30;99.90;;;;;;5092235;27;20066;-67
2022/12/02 01:28:42;;;;;;;55.55;21.55;;;7.30;99.90;;;;;;5093762;27;20550;-67
2022/12/02 01:31:08;;;;;;;53.55;21.52;;;7.30;99.90;;;;;;5084080;28;20032;-68
2022/12/02 01:33:34;;;;;;;57.67;21.95;;;7.30;99.90;;;;;;5101770;27;20039;-67
2022/12/02 01:35:59;;;;;;;56.95;21.40;;;7.40;99.90;;;;;;5109593;27;20051;-67
2022/12/02 01:38:25;;;;;;;58.03;22.20;;;7.20;99.90;;;;;;5120501;27;20126;-68
2022/12/02 01:40:51;;;;;;;53.80;21.35;;;7.20;99.90;;;;;;5116037;27;20145;-67
2022/12/02 01:43:17;;;;;;;57.45;22.77;;;7.30;99.90;;;;;;5088655;27;20435;-67
2022/12/02 01:45:42;;;;;;;54.05;20.75;;;7.40;99.90;;;;;;5080043;28;20031;-67
2022/12/02 01:48:08;;;;;;;64.32;23.70;;;7.40;99.90;;;;;;5094006;27;20059;-68
2022/12/02 01:50:34;;;;;;;57.40;20.77;;;7.40;99.90;;;;;;5115467;27;20023;-67
2022/12/02 01:53:00;;;;;;;60.50;22.33;;;7.30;99.90;;;;;;5118563;27;20067;-67
2022/12/02 01:55:27;;;;;;;59.28;20.45;;;7.30;99.90;;;;;;5114968;27;20023;-67
2022/12/02 01:57:55;;;;;;;58.30;19.92;;;7.30;99.90;;;;;;5114614;27;20498;-69
2022/12/02 02:00:20;;;;;;;56.35;19.85;;;7.30;99.90;;;;;;5091714;27;20343;-68
2022/12/02 02:02:46;;;;;;;51.28;19.23;;;7.20;99.90;;;;;;5104845;27;20096;-67
2022/12/02 02:05:20;;;;;;;49.55;19.60;;;7.20;99.90;;;;;;5119792;27;20034;-67
2022/12/02 02:07:54;;;;;;;56.88;21.48;;;7.00;99.90;;;;;;5116072;27;20244;-67
2022/12/02 02:10:22;;;;;;;57.05;19.70;;;6.80;99.90;;;;;;5100317;28;20112;-67
2022/12/02 02:12:49;;;;;;;52.60;20.20;;;6.80;99.90;;;;;;5098784;28;20515;-67
2022/12/02 02:15:15;;;;;;;56.50;20.83;;;6.80;99.90;;;;;;5087209;28;20371;-67
2022/12/02 02:17:42;;;;;;;58.03;20.55;;;6.80;99.90;;;;;;5098661;27;20520;-67
2022/12/02 02:20:11;;;;;;;55.97;20.35;;;6.80;99.90;;;;;;5104059;27;20023;-67
2022/12/02 02:22:44;;;;;;;56.85;19.73;;;6.80;99.90;;;;;;5112818;27;20079;-67
2022/12/02 02:25:15;;;;;;;54.05;19.95;;;6.90;99.90;;;;;;5119989;27;20023;-67
2022/12/02 02:27:45;;;;;;;58.83;21.20;;;6.90;99.90;;;;;;5117758;27;20039;-66
2022/12/02 02:30:11;;;;;;;59.60;20.30;;;6.90;99.90;;;;;;5114923;27;20454;-67
2022/12/02 02:32:37;;;;;;;56.13;20.25;;;6.90;99.90;;;;;;5091534;28;20499;-67
2022/12/02 02:35:03;;;;;;;57.10;19.92;;;6.90;99.90;;;;;;5075835;28;20032;-67
2022/12/02 02:37:30;;;;;;;53.25;20.08;;;7.00;99.90;;;;;;5097012;27;20640;-67
2022/12/02 02:39:56;;;;;;;55.22;19.65;;;7.00;99.90;;;;;;5098826;28;20536;-68
2022/12/02 02:42:22;;;;;;;49.80;17.90;;;6.90;99.90;;;;;;5115485;27;20026;-67
2022/12/02 02:44:47;;;;;;;53.38;19.73;;;6.90;99.90;;;;;;5116622;27;20087;-67
2022/12/02 02:47:13;;;;;;;54.65;19.05;;;6.90;99.90;;;;;;5104061;27;20107;-66
2022/12/02 02:49:39;;;;;;;50.28;18.88;;;7.00;99.90;;;;;;5086853;27;20031;-67
2022/12/02 02:52:04;;;;;;;49.85;19.85;;;7.10;99.90;;;;;;5088205;27;20596;-67
2022/12/02 02:54:30;;;;;;;50.33;18.33;;;7.10;99.90;;;;;;5096537;27;20059;-66
2022/12/02 02:56:56;;;;;;;50.88;19.20;;;7.10;99.90;;;;;;5106381;27;20071;-69
2022/12/02 02:59:21;;;;;;;56.05;19.85;;;7.10;99.90;;;;;;5089175;27;20031;-67
2022/12/02 03:01:49;;;;;;;47.83;17.75;;;7.00;99.90;;;;;;5119013;27;20478;-69
2022/12/02 03:04:17;;;;;;;49.25;17.75;;;7.10;99.90;;;;;;5114229;27;20117;-67
2022/12/02 03:06:44;;;;;;;48.88;19.02;;;7.10;99.90;;;;;;5114481;27;20407;-67
2022/12/02 03:09:13;;;;;;;51.13;20.23;;;7.10;99.90;;;;;;5101196;27;20439;-67
2022/12/02 03:11:40;;;;;;;50.92;19.00;;;7.10;99.90;;;;;;5077254;28;20177;-67
2022/12/02 03:14:07;;;;;;;51.40;19.80;;;7.10;99.90;;;;;;5094073;27;20447;-67
2022/12/02 03:16:33;;;;;;;44.92;18.05;;;7.10;99.90;;;;;;5112787;27;20460;-67
2022/12/02 03:18:59;;;;;;;48.42;19.20;;;7.10;99.90;;;;;;5112379;27;20356;-67
2022/12/02 03:21:26;;;;;;;51.28;18.58;;;7.00;99.90;;;;;;5101370;27;20024;-67
2022/12/02 03:23:56;;;;;;;42.92;17.23;;;6.90;99.90;;;;;;5074398;28;20054;-67
2022/12/02 03:26:22;;;;;;;41.95;17.50;;;7.00;99.90;;;;;;5074766;28;20432;-67
2022/12/02 03:28:48;;;;;;;42.50;16.70;;;7.00;99.90;;;;;;5073274;28;20052;-66
2022/12/02 03:31:15;;;;;;;44.67;16.60;;;6.90;99.90;;;;;;5088074;27;20113;-67
2022/12/02 03:33:41;;;;;;;38.90;15.45;;;7.00;99.90;;;;;;5096442;27;20461;-67
2022/12/02 03:36:08;;;;;;;41.22;16.15;;;7.00;99.90;;;;;;5118045;27;20166;-67
2022/12/02 03:38:35;;;;;;;41.05;16.60;;;7.10;99.90;;;;;;5113305;27;20031;-67
2022/12/02 03:41:03;;;;;;;36.30;15.35;;;7.10;99.90;;;;;;5117400;27;20026;-67
2022/12/02 03:43:29;;;;;;;41.40;16.20;;;7.10;99.90;;;;;;5078739;28;20015;-66
2022/12/02 03:45:56;;;;;;;44.13;16.63;;;7.10;99.90;;;;;;5111028;27;20019;-67
2022/12/02 03:48:23;;;;;;;41.88;16.45;;;7.10;99.90;;;;;;5115402;27;20034;-67
2022/12/02 03:50:50;;;;;;;46.72;17.85;;;7.10;99.90;;;;;;5118965;27;20023;-66
2022/12/02 03:53:16;;;;;;;43.22;17.33;;;7.00;99.90;;;;;;5115043;27;20103;-67
2022/12/02 03:55:42;;;;;;;44.35;18.27;;;7.00;99.90;;;;;;5078742;28;20067;-67
2022/12/02 03:58:08;;;;;;;44.53;16.70;;;7.00;99.90;;;;;;5076797;28;20499;-67
2022/12/02 04:00:35;;;;;;;43.28;17.35;;;7.00;99.90;;;;;;5075363;28;20474;-67
2022/12/02 04:03:01;;;;;;;40.47;16.52;;;7.10;99.90;;;;;;5114836;28;20027;-67
2022/12/02 04:05:27;;;;;;;47.35;17.45;;;7.10;99.90;;;;;;5114403;27;20019;-67
2022/12/02 04:07:53;;;;;;;48.38;17.95;;;7.00;99.90;;;;;;5097691;28;20476;-67
2022/12/02 04:10:18;;;;;;;42.45;16.48;;;6.70;99.90;;;;;;5112713;28;20026;-67
2022/12/02 04:12:44;;;;;;;41.80;16.20;;;6.70;99.90;;;;;;5115524;27;20030;-67
2022/12/02 04:15:10;;;;;;;45.55;17.13;;;6.60;99.90;;;;;;5096347;28;20020;-67
2022/12/02 04:17:36;;;;;;;48.53;18.52;;;6.50;99.90;;;;;;5082959;28;20042;-67
2022/12/02 04:20:04;;;;;;;42.70;16.50;;;6.40;99.90;;;;;;5109453;27;20460;-67
2022/12/02 04:22:29;;;;;;;43.38;16.85;;;6.50;99.90;;;;;;5115838;27;20023;-67
2022/12/02 04:24:57;;;;;;;43.53;16.77;;;6.60;99.90;;;;;;5105586;27;20040;-67
2022/12/02 04:27:23;;;;;;;42.13;16.27;;;6.60;99.90;;;;;;5096616;28;20072;-67
2022/12/02 04:29:49;;;;;;;43.60;17.65;;;6.60;99.90;;;;;;5096881;28;20028;-67
2022/12/02 04:32:15;;;;;;;48.45;17.83;;;6.60;99.90;;;;;;5096344;28;20028;-67
2022/12/02 04:34:41;;;;;;;44.17;17.73;;;6.50;99.90;;;;;;5107257;27;20709;-67
2022/12/02 04:37:06;;;;;;;42.28;16.58;;;6.40;99.90;;;;;;5092102;28;20295;-67
2022/12/02 04:39:32;;;;;;;35.78;14.57;;;6.50;99.90;;;;;;5094528;28;20042;-66
2022/12/02 04:41:58;;;;;;;39.70;15.57;;;6.40;99.90;;;;;;5088865;28;20027;-67
2022/12/02 04:44:23;;;;;;;41.65;16.25;;;6.40;99.90;;;;;;5113451;27;20623;-67
2022/12/02 04:46:49;;;;;;;42.33;16.42;;;6.40;99.90;;;;;;5088975;28;20188;-67
2022/12/02 04:49:15;;;;;;;40.22;15.70;;;6.30;99.90;;;;;;5109796;27;20039;-66
2022/12/02 04:51:40;;;;;;;37.80;15.20;;;6.10;99.90;;;;;;5099021;27;20491;-68
2022/12/02 04:54:06;;;;;;;42.63;15.60;;;6.00;99.90;;;;;;5081532;28;20023;-67
2022/12/02 04:56:32;;;;;;;35.65;14.98;;;5.90;99.90;;;;;;5097313;28;20027;-68
2022/12/02 04:58:57;;;;;;;34.55;13.82;;;5.90;99.90;;;;;;5109394;27;20150;-69
2022/12/02 05:01:23;;;;;;;34.65;15.00;;;5.80;99.90;;;;;;5101122;28;20027;-68
2022/12/02 05:03:49;;;;;;;36.63;14.85;;;5.70;99.90;;;;;;5098183;28;20093;-68
2022/12/02 05:06:14;;;;;;;34.35;14.23;;;5.50;99.90;;;;;;5110554;27;20049;-68
2022/12/02 05:08:40;;;;;;;36.35;14.88;;;5.50;99.90;;;;;;5111144;27;20486;-68
2022/12/02 05:11:06;;;;;;;34.20;13.73;;;5.40;99.90;;;;;;5117295;27;20026;-68
2022/12/02 05:13:31;;;;;;;33.47;14.40;;;5.40;99.90;;;;;;5097034;27;20704;-68
2022/12/02 05:15:57;;;;;;;32.38;13.68;;;5.40;99.90;;;;;;5096368;27;20026;-68
2022/12/02 05:18:22;;;;;;;38.80;13.93;;;5.40;99.90;;;;;;5100611;27;20070;-68
2022/12/02 05:20:48;;;;;;;35.78;14.52;;;5.40;99.90;;;;;;5083031;27;20119;-68
2022/12/02 05:23:14;;;;;;;37.20;15.02;;;5.40;99.90;;;;;;5080944;28;20039;-69
2022/12/02 05:25:39;;;;;;;39.35;15.10;;;5.40;99.90;;;;;;5101970;27;20623;-68
2022/12/02 05:28:05;;;;;;;38.25;14.68;;;5.40;99.90;;;;;;5078580;28;20040;-68
2022/12/02 05:30:31;;;;;;;37.78;14.07;;;5.30;99.90;;;;;;5083385;27;20478;-68
2022/12/02 05:32:56;;;;;;;39.55;14.48;;;5.30;99.90;;;;;;5117787;27;20379;-69
2022/12/02 05:35:22;;;;;;;35.80;13.32;;;5.40;99.90;;;;;;5118931;27;20031;-68
2022/12/02 05:37:47;;;;;;;37.20;14.35;;;5.50;99.90;;;;;;5100200;27;20087;-68
2022/12/02 05:40:13;;;;;;;40.55;14.90;;;5.50;99.90;;;;;;5087060;27;20506;-68
2022/12/02 05:42:40;;;;;;;37.67;15.00;;;5.50;99.90;;;;;;5091976;28;20034;-68
2022/12/02 05:45:18;;;;;;;36.65;14.05;;;5.50;99.90;;;;;;5079826;28;20039;-68
2022/12/02 05:47:49;;;;;;;41.35;15.40;;;5.60;99.90;;;;;;5108393;27;20031;-69
2022/12/02 05:50:15;;;;;;;41.90;15.50;;;5.60;99.90;;;;;;5108496;27;20164;-68
2022/12/02 05:52:42;;;;;;;36.08;14.18;;;5.60;99.90;;;;;;5100527;28;20510;-69
2022/12/02 05:55:17;;;;;;;35.28;14.20;;;5.60;99.90;;;;;;5098261;27;20024;-68
2022/12/02 05:57:43;;;;;;;36.88;13.43;;;5.60;99.90;;;;;;5077070;28;20036;-68
2022/12/02 06:00:12;;;;;;;33.33;13.30;;;5.60;99.90;;;;;;5086717;27;20044;-68
2022/12/02 06:02:42;;;;;;;33.72;12.95;;;5.60;99.90;;;;;;5104716;27;20092;-68
2022/12/02 06:05:20;;;;;;;32.35;13.88;;;5.60;99.90;;;;;;5089210;27;20446;-68
2022/12/02 06:07:48;;;;;;;26.85;12.07;;;5.60;99.90;;;;;;5078198;28;20378;-68
2022/12/02 06:10:27;;;;;;;30.73;12.70;;;5.50;99.90;;;;;;5095015;27;20253;-68
2022/12/02 06:12:56;;;;;;;27.65;11.50;;;5.50;99.90;;;;;;5097067;27;20038;-68
2022/12/02 06:15:22;;;;;;;31.80;12.23;;;5.60;99.90;;;;;;5096502;28;20020;-68
2022/12/02 06:17:48;;;;;;;27.02;11.45;;;5.60;99.90;;;;;;5100334;27;20092;-68
2022/12/02 06:20:34;;;;;;;27.92;12.25;;;5.60;99.90;;;;;;5099275;27;20040;-68
2022/12/02 06:23:01;;;;;;;28.80;11.35;;;5.50;99.90;;;;;;5115086;27;20866;-68
2022/12/02 06:25:31;;;;;;;28.73;11.65;;;5.60;99.90;;;;;;5095232;27;20035;-68
2022/12/02 06:28:11;;;;;;;21.80;10.93;;;5.60;99.90;;;;;;5077291;28;20807;-68
2022/12/02 06:30:38;;;;;;;21.85;10.93;;;5.60;99.90;;;;;;5083277;28;20249;-68
2022/12/02 06:33:03;;;;;;;25.38;10.52;;;5.60;99.90;;;;;;5081323;27;20024;-68
2022/12/02 06:35:31;;;;;;;25.50;10.57;;;5.60;99.90;;;;;;5096019;28;20555;-68
2022/12/02 06:38:12;;;;;;;23.42;10.25;;;5.60;99.90;;;;;;5103236;27;20039;-68
2022/12/02 06:40:38;;;;;;;25.65;11.20;;;5.70;99.90;;;;;;5108361;27;20535;-68
2022/12/02 06:43:14;;;;;;;26.13;11.57;;;5.60;99.90;;;;;;5097817;28;20064;-68
2022/12/02 06:45:41;;;;;;;26.80;10.63;;;5.70;99.90;;;;;;5090691;28;20637;-68
2022/12/02 06:48:29;;;;;;;23.73;10.48;;;5.60;99.90;;;;;;5110757;27;20135;-68
2022/12/02 06:50:58;;;;;;;23.58;10.25;;;5.60;99.90;;;;;;5103131;27;20114;-68
2022/12/02 06:53:33;;;;;;;22.13;10.30;;;5.60;99.90;;;;;;5112953;27;20034;-68
2022/12/02 06:56:15;;;;;;;22.20;10.20;;;5.60;99.90;;;;;;5090365;27;20060;-68
2022/12/02 06:58:45;;;;;;;24.42;10.05;;;5.60;99.90;;;;;;5077034;28;20097;-68
2022/12/02 07:01:24;;;;;;;24.10;10.43;;;5.60;99.90;;;;;;5096360;27;20472;-68
2022/12/02 07:03:56;;;;;;;24.35;9.35;;;5.50;99.90;;;;;;5097153;28;20444;-68
2022/12/02 07:06:25;;;;;;;;;;;5.50;99.90;;;;;;5101545;27;20113;-68
2022/12/02 07:08:54;;;;;;;19.15;8.73;;;5.50;99.90;;;;;;5079770;28;19961;-68
2022/12/02 07:14:39;;;;;;;19.48;10.00;;;5.50;99.90;;;;;;5086993;27;20103;-68
2022/12/02 07:17:19;;;;;;;24.05;9.85;;;5.40;99.90;;;;;;5112542;27;20027;-70
2022/12/02 07:19:47;;;;;;;22.70;9.05;;;5.40;99.90;;;;;;5108442;27;20464;-68
2022/12/02 07:22:28;;;;;;;23.13;9.05;;;5.50;99.90;;;;;;5088070;27;20529;-68
2022/12/02 07:25:10;;;;;;;21.38;8.60;;;5.60;99.90;;;;;;5095721;27;20063;-68
2022/12/02 07:27:41;;;;;;;125.40;45.95;;;5.60;99.90;;;;;;5099879;27;20088;-68
2022/12/02 07:30:19;;;;;;;159.88;57.45;;;5.60;99.90;;;;;;5091146;27;20023;-68
2022/12/02 07:32:45;;;;;;;43.60;18.33;;;5.60;99.90;;;;;;5089153;27;20034;-68
2022/12/02 07:35:10;;;;;;;27.38;12.18;;;5.70;99.90;;;;;;5077138;28;20115;-68
2022/12/02 07:37:36;;;;;;;25.65;10.52;;;5.70;99.90;;;;;;5103636;27;20059;-68
2022/12/02 07:40:02;;;;;;;19.80;9.13;;;5.80;99.90;;;;;;5101396;27;20028;-68
2022/12/02 07:42:27;;;;;;;28.63;11.13;;;5.80;99.90;;;;;;5091470;27;20028;-68
2022/12/02 07:44:53;;;;;;;22.45;9.82;;;5.80;99.90;;;;;;5084256;27;20055;-68
2022/12/02 07:47:18;;;;;;;19.63;9.13;;;5.80;99.90;;;;;;5097782;27;20031;-68
2022/12/02 07:49:44;;;;;;;22.98;10.00;;;5.70;99.90;;;;;;5094831;27;20035;-68
2022/12/02 07:52:10;;;;;;;21.85;9.05;;;5.60;99.90;;;;;;5083662;28;20039;-68
2022/12/02 07:54:35;;;;;;;22.75;10.40;;;5.70;99.90;;;;;;5104245;28;20031;-68
2022/12/02 07:57:01;;;;;;;24.03;8.67;;;5.60;99.90;;;;;;5084901;27;20050;-68
2022/12/02 07:59:26;;;;;;;19.38;9.23;;;5.70;99.90;;;;;;5084019;28;20028;-68
2022/12/02 08:01:52;;;;;;;20.08;8.75;;;5.60;99.90;;;;;;5098044;27;20063;-68
2022/12/02 08:04:18;;;;;;;21.67;9.57;;;5.70;99.90;;;;;;5105738;28;20051;-68
2022/12/02 08:06:43;;;;;;;18.63;8.70;;;5.80;99.90;;;;;;5100244;27;20034;-68
2022/12/02 08:09:09;;;;;;;23.08;9.82;;;5.70;99.90;;;;;;5087056;28;20080;-68
2022/12/02 08:11:35;;;;;;;23.85;9.10;;;5.80;99.90;;;;;;5113589;28;20035;-67
2022/12/02 08:14:01;;;;;;;18.60;9.38;;;5.90;99.90;;;;;;5116799;27;20389;-68
2022/12/02 08:16:26;;;;;;;19.80;8.98;;;6.00;99.90;;;;;;5089192;28;20039;-67
2022/12/02 08:18:52;;;;;;;17.45;9.07;;;6.10;99.90;;;;;;5081398;28;20042;-68
2022/12/02 08:21:18;;;;;;;19.85;9.18;;;6.10;99.90;;;;;;5097760;28;20031;-68
2022/12/02 08:23:43;;;;;;;18.98;9.10;;;6.20;99.90;;;;;;5099873;28;20031;-68
2022/12/02 08:26:09;;;;;;;22.50;9.43;;;6.30;99.90;;;;;;5109166;28;20092;-68
2022/12/02 08:28:34;;;;;;;18.95;8.57;;;6.30;99.90;;;;;;5108267;27;20084;-68
2022/12/02 08:31:00;;;;;;;18.08;8.90;;;6.30;99.90;;;;;;5100048;28;20046;-68
2022/12/02 08:33:26;;;;;;;23.33;9.25;;;6.30;99.90;;;;;;5080474;28;20027;-68
2022/12/02 08:35:51;;;;;;;17.33;8.50;;;6.30;99.90;;;;;;5084424;27;20259;-68
2022/12/02 08:38:17;;;;;;;18.35;9.15;;;6.40;99.90;;;;;;5084084;28;20080;-68
2022/12/02 08:40:43;;;;;;;18.35;8.80;;;6.40;99.90;;;;;;5086653;27;20054;-68
2022/12/02 08:43:08;;;;;;;18.85;9.07;;;6.50;99.90;;;;;;5085921;27;20419;-68
2022/12/02 08:45:34;;;;;;;16.52;8.68;;;6.50;99.90;;;;;;5088814;27;20654;-68
2022/12/02 08:48:00;;;;;;;17.35;8.35;;;6.50;99.90;;;;;;5091751;28;20035;-68
2022/12/02 08:50:25;;;;;;;20.05;8.93;;;6.60;99.90;;;;;;5089421;28;20078;-68
2022/12/02 08:52:51;;;;;;;16.85;8.25;;;6.60;99.90;;;;;;5101283;28;20062;-69
2022/12/02 08:55:17;;;;;;;17.50;8.85;;;6.60;99.90;;;;;;5102006;28;20061;-68
2022/12/02 08:57:42;;;;;;;17.65;8.77;;;6.60;99.90;;;;;;5091281;27;20143;-68
2022/12/02 09:00:09;;;;;;;17.73;9.10;;;6.60;99.90;;;;;;5081589;28;20123;-68
2022/12/02 09:02:35;;;;;;;19.42;9.70;;;6.60;99.90;;;;;;5102203;28;20457;-68
2022/12/02 09:05:01;;;;;;;18.77;9.30;;;6.50;99.90;;;;;;5086135;28;20092;-68
2022/12/02 09:07:27;;;;;;;19.90;9.38;;;6.50;99.90;;;;;;5081883;28;20024;-69
2022/12/02 09:09:52;;;;;;;16.50;9.15;;;6.50;99.90;;;;;;5090508;27;20030;-68
2022/12/02 09:12:18;;;;;;;14.80;8.60;;;6.60;99.90;;;;;;5091668;27;20392;-68
2022/12/02 09:14:43;;;;;;;19.67;9.45;;;6.60;99.90;;;;;;5087997;28;20028;-68
2022/12/02 09:17:09;;;;;;;19.05;9.23;;;6.70;99.90;;;;;;5093490;28;20085;-67
2022/12/02 09:19:35;;;;;;;16.35;8.15;;;6.80;99.90;;;;;;5092555;28;20529;-68
2022/12/02 09:22:00;;;;;;;17.33;9.23;;;6.80;99.90;;;;;;5079646;27;20031;-68
2022/12/02 09:24:26;;;;;;;20.73;9.30;;;6.90;99.90;;;;;;5084086;27;20039;-68
2022/12/02 09:26:52;;;;;;;18.00;9.27;;;6.80;99.90;;;;;;5088381;28;20051;-68
2022/12/02 09:29:17;;;;;;;16.85;9.10;;;6.90;99.90;;;;;;5085671;27;20389;-68
2022/12/02 09:31:43;;;;;;;17.25;8.60;;;6.80;99.90;;;;;;5086728;27;20036;-68
2022/12/02 09:34:08;;;;;;;18.80;9.23;;;6.90;99.90;;;;;;5087557;27;20124;-67
2022/12/02 09:36:34;;;;;;;16.65;9.15;;;6.90;99.90;;;;;;5082864;27;20020;-67
2022/12/02 09:39:00;;;;;;;17.02;9.35;;;7.10;99.90;;;;;;5088334;27;20054;-68
2022/12/02 09:41:26;;;;;;;21.15;9.80;;;7.20;99.90;;;;;;5085251;27;20084;-67
2022/12/02 09:43:52;;;;;;;19.45;9.85;;;7.30;99.90;;;;;;5084780;27;20051;-68
2022/12/02 09:46:18;;;;;;;16.80;9.75;;;7.30;99.90;;;;;;5083431;27;20055;-68
2022/12/02 09:48:44;;;;;;;19.80;10.30;;;7.50;99.90;;;;;;5083467;27;20114;-68
2022/12/02 09:51:10;;;;;;;20.70;10.15;;;7.60;99.90;;;;;;5085211;27;20077;-68
2022/12/02 09:53:39;;;;;;;18.83;9.55;;;7.70;99.90;;;;;;5087679;27;20094;-68
2022/12/02 09:56:12;;;;;;;16.48;9.25;;;7.80;99.90;;;;;;5084706;27;20020;-68
2022/12/02 09:58:38;;;;;;;16.00;8.95;;;7.90;99.90;;;;;;5081016;27;20048;-67
2022/12/02 10:01:11;;;;;;;17.67;9.18;;;8.00;99.90;;;;;;5082884;27;20435;-67
2022/12/02 10:03:38;;;;;;;16.25;8.82;;;8.00;99.90;;;;;;5085074;27;20406;-68
2022/12/02 10:06:11;;;;;;;15.57;8.75;;;8.00;99.90;;;;;;5085013;28;20442;-68
2022/12/02 10:08:36;;;;;;;16.95;9.05;;;7.90;99.90;;;;;;5087543;27;20050;-68
2022/12/02 10:11:04;;;;;;;16.75;8.77;;;8.10;99.90;;;;;;5087685;27;20024;-68
2022/12/02 10:13:33;;;;;;;15.73;9.10;;;7.90;99.90;;;;;;5103262;27;20032;-68
2022/12/02 10:16:01;;;;;;;16.77;8.95;;;8.00;99.90;;;;;;5092872;28;20027;-68
2022/12/02 10:18:30;;;;;;;17.08;9.27;;;8.20;99.90;;;;;;5091652;28;20039;-68
2022/12/02 10:20:55;;;;;;;16.98;8.77;;;8.30;99.90;;;;;;5081674;28;20051;-68
2022/12/02 10:23:23;;;;;;;19.45;9.50;;;8.30;99.90;;;;;;5082342;28;20162;-68
2022/12/02 10:26:11;;;;;;;17.35;8.40;;;8.50;99.90;;;;;;5085800;28;20114;-68
2022/12/02 10:28:38;;;;;;;16.20;9.45;;;8.60;99.90;;;;;;5078158;27;20116;-68
2022/12/02 10:31:21;;;;;;;21.13;10.20;;;8.80;99.90;;;;;;5078117;27;20384;-68
2022/12/02 10:34:06;;;;;;;17.92;9.25;;;8.60;98.50;;;;;;5100240;27;20032;-68
2022/12/02 10:36:41;;;;;;;18.23;10.05;;;8.90;99.90;;;;;;5085686;27;20034;-68
2022/12/02 10:39:33;;;;;;;16.60;8.82;;;9.20;99.00;;;;;;5087779;27;20058;-68
2022/12/02 10:42:06;;;;;;;;;;;9.30;98.50;;;;;;5081613;27;20525;-69
2022/12/02 10:44:37;;;;;;;17.48;9.60;;;9.40;98.20;;;;;;5087688;27;20065;-69
2022/12/02 10:47:15;;;;;;;18.42;9.93;;;9.50;97.70;;;;;;5084836;27;20475;-68
2022/12/02 10:49:45;;;;;;;17.23;9.68;;;9.40;97.60;;;;;;5087148;27;20039;-68
2022/12/02 10:52:12;;;;;;;21.23;9.80;;;9.00;98.00;;;;;;5084539;27;20501;-68
2022/12/02 10:54:43;;;;;;;17.98;9.35;;;9.00;98.60;;;;;;5098531;27;20035;-68
2022/12/02 10:57:12;;;;;;;17.70;9.73;;;9.00;99.90;;;;;;5104631;27;20043;-68
2022/12/02 10:59:38;;;;;;;20.05;9.43;;;9.10;99.20;;;;;;5089013;27;20560;-69
2022/12/02 11:02:18;;;;;;;19.50;9.82;;;9.20;98.30;;;;;;5094928;27;20068;-69
2022/12/02 11:04:44;;;;;;;16.67;9.00;;;9.30;97.70;;;;;;5114074;27;20028;-68
2022/12/02 11:07:15;;;;;;;16.83;9.38;;;9.30;98.80;;;;;;5101577;27;20051;-68
2022/12/02 11:09:45;;;;;;;17.15;9.55;;;9.60;97.40;;;;;;5093894;27;20082;-68
2022/12/02 11:12:34;;;;;;;18.10;9.25;;;9.80;97.40;;;;;;5104444;27;20034;-68
2022/12/02 11:15:03;;;;;;;17.65;9.25;;;9.70;96.70;;;;;;5099892;27;20095;-68
2022/12/02 11:17:51;;;;;;;18.92;8.85;;;9.70;95.70;;;;;;5088875;27;20418;-70
2022/12/02 11:20:28;;;;;;;17.60;9.32;;;9.60;96.50;;;;;;5078116;28;20032;-68
2022/12/02 11:22:57;;;;;;;19.55;9.82;;;9.60;97.00;;;;;;5093110;27;20479;-68
2022/12/02 11:25:41;;;;;;;20.33;10.32;;;9.90;97.00;;;;;;5091291;27;20036;-68
2022/12/02 11:28:28;;;;;;;21.10;10.48;;;9.60;97.30;;;;;;5110862;27;20027;-68
2022/12/02 11:31:09;;;;;;;21.58;11.23;;;9.40;96.10;;;;;;5100926;27;20389;-68
2022/12/02 11:34:00;;;;;;;18.83;9.63;;;9.30;97.40;;;;;;5091106;27;20023;-68
2022/12/02 11:36:32;;;;;;;18.65;10.35;;;9.40;98.30;;;;;;5095256;28;20301;-68
2022/12/02 11:39:01;;;;;;;19.80;9.73;;;9.50;98.10;;;;;;5095911;27;20077;-68
2022/12/02 11:41:29;;;;;;;19.25;10.30;;;9.70;97.60;;;;;;5107246;27;20566;-68
2022/12/02 11:44:19;;;;;;;20.48;10.82;;;9.50;97.60;;;;;;5110162;27;20079;-68
2022/12/02 11:46:48;;;;;;;21.85;10.43;;;9.50;96.70;;;;;;5093488;27;20365;-68
2022/12/02 11:49:29;;;;;;;18.20;10.13;;;9.40;98.30;;;;;;5095972;27;20023;-68
2022/12/02 11:52:03;;;;;;;19.92;10.15;;;9.40;96.90;;;;;;5099165;27;20117;-68
2022/12/02 11:54:29;;;;;;;23.25;11.82;;;9.30;98.50;;;;;;5093603;28;20029;-68
2022/12/02 11:56:56;;;;;;;21.75;11.18;;;9.30;97.40;;;;;;5087639;28;20039;-68
2022/12/02 11:59:28;;;;;;;22.92;11.02;;;9.20;99.00;;;;;;5098507;27;20039;-68
2022/12/02 12:02:13;;;;;;;20.75;10.50;;;9.20;98.60;;;;;;5111230;27;20026;-68
2022/12/02 12:04:39;;;;;;;20.88;11.70;;;9.20;98.50;;;;;;5099670;27;20122;-68
2022/12/02 12:07:05;;;;;;;18.08;9.52;;;9.50;98.30;;;;;;5099393;28;20046;-68
2022/12/02 12:09:31;;;;;;;20.58;10.65;;;9.90;97.20;;;;;;5104836;28;20104;-68
2022/12/02 12:12:07;;;;;;;18.95;9.65;;;10.20;96.60;;;;;;5098467;27;20040;-68
2022/12/02 12:14:32;;;;;;;19.83;10.32;;;10.50;96.30;;;;;;5094496;27;20108;-68
2022/12/02 12:17:32;;;;;;;17.90;9.25;;;10.40;93.20;;;;;;5113780;27;20192;-68
2022/12/02 12:19:58;;;;;;;17.05;9.13;;;9.90;95.90;;;;;;5099083;28;20039;-68
2022/12/02 12:22:26;;;;;;;19.58;10.52;;;9.60;95.60;;;;;;5100976;28;20047;-68
2022/12/02 12:24:52;;;;;;;19.73;9.38;;;9.30;97.90;;;;;;5109878;27;20038;-68
2022/12/02 12:27:32;;;;;;;20.73;11.15;;;9.10;98.90;;;;;;5113838;27;20023;-68
2022/12/02 12:29:58;;;;;;;18.37;9.97;;;8.80;99.00;;;;;;5107968;27;20103;-68
2022/12/02 12:32:24;;;;;;;19.98;10.30;;;8.90;99.90;;;;;;5091905;27;20026;-68
2022/12/02 12:34:49;;;;;;;22.10;10.90;;;8.90;99.50;;;;;;5103856;27;20037;-68
2022/12/02 12:37:15;;;;;;;19.40;10.30;;;9.00;99.30;;;;;;5092067;27;20393;-68
2022/12/02 12:39:41;;;;;;;21.17;10.57;;;9.20;99.10;;;;;;5083744;27;20950;-68
2022/12/02 12:42:06;;;;;;;22.20;10.23;;;9.50;98.00;;;;;;5083610;27;20032;-68
2022/12/02 12:44:32;;;;;;;22.42;9.85;;;9.70;97.50;;;;;;5084603;27;20054;-68
2022/12/02 12:47:01;;;;;;;19.08;9.23;;;9.80;97.00;;;;;;5090241;28;20405;-68
2022/12/02 12:49:26;;;;;;;18.25;9.18;;;10.00;96.20;;;;;;5094883;28;20030;-68
2022/12/02 12:51:52;;;;;;;17.50;9.68;;;9.80;94.80;;;;;;5099466;27;20056;-68
2022/12/02 12:54:18;;;;;;;20.00;10.07;;;9.80;97.40;;;;;;5099517;28;20429;-68